createdAt,value
2019-05-30T00:00:03.693Z,4.97
2019-05-30T00:02:16.714Z,5.50
2019-05-30T00:04:43.069Z,5.50
2019-05-30T00:07:11.116Z,6.53
2019-05-30T00:09:37.232Z,6.40
2019-05-30T00:12:04.872Z,6.47
2019-05-30T00:14:31.433Z,6.43
2019-05-30T00:16:58.725Z,6.20
2019-05-30T00:19:25.158Z,6.67
2019-05-30T00:21:51.339Z,7.00
2019-05-30T00:24:19.050Z,7.23
2019-05-30T00:26:45.256Z,7.73
2019-05-30T00:29:11.433Z,6.87
2019-05-30T00:31:37.602Z,8.00
2019-05-30T00:34:04.292Z,6.97
2019-05-30T00:36:30.527Z,6.90
2019-05-30T00:38:57.672Z,6.73
2019-05-30T00:41:23.911Z,7.43
2019-05-30T00:43:50.087Z,7.10
2019-05-30T00:46:16.260Z,7.40
2019-05-30T00:48:42.471Z,7.27
2019-05-30T00:51:08.641Z,8.27
2019-05-30T00:53:34.818Z,9.07
2019-05-30T00:56:01.475Z,8.47
2019-05-30T00:58:29.013Z,9.50
2019-05-30T01:00:55.187Z,8.80
2019-05-30T01:03:22.787Z,8.30
2019-05-30T01:05:48.963Z,9.10
2019-05-30T01:08:15.142Z,8.87
2019-05-30T01:10:41.555Z,9.43
2019-05-30T01:13:07.719Z,9.60
2019-05-30T01:15:33.933Z,9.37
2019-05-30T01:18:01.082Z,9.57
2019-05-30T01:20:27.534Z,10.03
2019-05-30T01:22:53.715Z,9.57
2019-05-30T01:25:20.640Z,9.20
2019-05-30T01:27:46.813Z,10.17
2019-05-30T01:30:13.686Z,10.13
2019-05-30T01:32:40.009Z,9.07
2019-05-30T01:35:06.281Z,9.67
2019-05-30T01:37:32.620Z,10.60
2019-05-30T01:39:59.751Z,10.40
2019-05-30T01:42:26.234Z,9.97
2019-05-30T01:44:52.442Z,9.90
2019-05-30T01:47:18.869Z,9.50
2019-05-30T01:49:45.047Z,9.50
2019-05-30T01:52:11.235Z,8.87
2019-05-30T01:54:37.550Z,10.07
2019-05-30T01:57:04.680Z,10.33
2019-05-30T01:59:31.046Z,10.50
2019-05-30T02:01:57.248Z,9.57
2019-05-30T02:04:23.428Z,9.40
2019-05-30T02:06:49.807Z,10.07
2019-05-30T02:09:16.037Z,10.00
2019-05-30T02:11:42.411Z,10.53
2019-05-30T02:14:09.796Z,10.87
2019-05-30T02:16:36.263Z,9.73
2019-05-30T02:19:03.635Z,10.37
2019-05-30T02:21:29.907Z,10.33
2019-05-30T02:23:56.097Z,10.87
2019-05-30T02:26:22.626Z,10.60
2019-05-30T02:28:48.794Z,10.13
2019-05-30T02:31:15.172Z,9.83
2019-05-30T02:33:41.351Z,9.70
2019-05-30T02:36:08.476Z,9.90
2019-05-30T02:38:35.752Z,9.50
2019-05-30T02:41:03.342Z,10.00
2019-05-30T02:43:30.300Z,10.17
2019-05-30T02:45:56.796Z,10.23
2019-05-30T02:48:22.977Z,11.33
2019-05-30T02:50:49.156Z,10.03
2019-05-30T02:53:15.464Z,10.17
2019-05-30T02:55:42.034Z,9.87
2019-05-30T02:58:09.762Z,10.53
2019-05-30T03:00:36.317Z,9.97
2019-05-30T03:03:04.032Z,10.37
2019-05-30T03:05:32.399Z,9.97
2019-05-30T03:07:58.731Z,11.17
2019-05-30T03:10:25.003Z,10.50
2019-05-30T03:12:51.171Z,10.33
2019-05-30T03:15:17.468Z,9.37
2019-05-30T03:17:43.642Z,9.80
2019-05-30T03:20:20.613Z,9.77
2019-05-30T03:22:38.057Z,9.37
2019-05-30T03:25:05.660Z,9.90
2019-05-30T03:27:32.771Z,10.67
2019-05-30T03:29:59.084Z,10.13
2019-05-30T03:34:53.358Z,9.33
2019-05-30T03:37:28.575Z,10.07
2019-05-30T03:39:47.707Z,11.20
2019-05-30T03:42:15.772Z,11.77
2019-05-30T03:44:41.984Z,9.57
2019-05-30T03:47:09.219Z,10.97
2019-05-30T03:49:37.934Z,11.10
2019-05-30T03:52:05.028Z,10.10
2019-05-30T03:54:32.117Z,10.53
2019-05-30T03:57:02.097Z,10.80
2019-05-30T03:59:30.921Z,10.93
2019-05-30T04:02:01.028Z,10.90
2019-05-30T04:04:30.014Z,11.10
2019-05-30T04:07:00.030Z,11.67
2019-05-30T04:09:26.208Z,10.13
2019-05-30T04:11:56.601Z,12.70
2019-05-30T04:14:23.615Z,13.57
2019-05-30T04:16:49.798Z,14.53
2019-05-30T04:19:17.742Z,16.57
2019-05-30T04:21:43.983Z,16.97
2019-05-30T04:24:11.901Z,19.27
2019-05-30T04:26:38.131Z,18.23
2019-05-30T04:29:04.691Z,19.47
2019-05-30T04:31:30.820Z,18.77
2019-05-30T04:33:57.152Z,18.90
2019-05-30T04:36:23.502Z,18.50
2019-05-30T04:38:49.767Z,20.43
2019-05-30T04:41:18.439Z,17.93
2019-05-30T04:43:43.952Z,16.97
2019-05-30T04:46:10.843Z,17.57
2019-05-30T04:48:38.104Z,17.80
2019-05-30T04:51:04.302Z,19.40
2019-05-30T04:53:30.574Z,16.63
2019-05-30T04:55:56.784Z,17.37
2019-05-30T04:58:24.276Z,16.13
2019-05-30T05:00:50.774Z,14.07
2019-05-30T05:03:23.239Z,15.37
2019-05-30T05:05:44.953Z,16.17
2019-05-30T05:08:11.755Z,16.67
2019-05-30T05:10:38.006Z,17.90
2019-05-30T05:13:04.211Z,19.83
2019-05-30T05:15:30.703Z,23.50
2019-05-30T05:17:56.858Z,22.50
2019-05-30T05:20:23.589Z,24.73
2019-05-30T05:22:49.834Z,23.87
2019-05-30T05:25:17.354Z,27.33
2019-05-30T05:27:43.807Z,27.60
2019-05-30T05:30:10.343Z,25.00
2019-05-30T05:32:36.631Z,20.67
2019-05-30T05:35:05.167Z,19.90
2019-05-30T05:37:31.347Z,20.60
2019-05-30T05:39:57.630Z,21.77
2019-05-30T05:42:28.363Z,23.07
2019-05-30T05:44:52.110Z,26.90
2019-05-30T05:47:18.517Z,28.13
2019-05-30T05:49:45.061Z,26.00
2019-05-30T05:52:12.142Z,26.23
2019-05-30T05:54:38.549Z,25.50
2019-05-30T05:57:04.755Z,25.97
2019-05-30T05:59:31.102Z,28.27
2019-05-30T06:01:57.219Z,28.40
2019-05-30T06:04:23.410Z,31.97
2019-05-30T06:06:49.590Z,32.50
2019-05-30T06:09:16.396Z,29.93
2019-05-30T06:11:43.079Z,30.10
2019-05-30T06:14:09.247Z,30.20
2019-05-30T06:16:35.424Z,28.60
2019-05-30T06:19:01.699Z,27.73
2019-05-30T06:21:27.879Z,29.17
2019-05-30T06:23:54.055Z,29.20
2019-05-30T06:26:20.263Z,26.47
2019-05-30T06:28:46.551Z,28.67
2019-05-30T06:31:13.731Z,27.13
2019-05-30T06:33:39.939Z,25.30
2019-05-30T06:36:06.120Z,24.47
2019-05-30T06:38:32.300Z,26.40
2019-05-30T06:40:58.503Z,27.90
2019-05-30T06:43:26.009Z,27.70
2019-05-30T06:45:52.517Z,26.77
2019-05-30T06:48:18.759Z,29.50
2019-05-30T06:50:45.040Z,26.30
2019-05-30T06:53:11.321Z,24.57
2019-05-30T06:55:37.511Z,27.60
2019-05-30T06:58:03.696Z,29.73
2019-05-30T07:00:30.287Z,28.40
2019-05-30T07:02:56.772Z,28.43
2019-05-30T07:05:24.294Z,28.60
2019-05-30T07:07:51.270Z,29.00
2019-05-30T07:10:17.874Z,24.27
2019-05-30T07:12:44.056Z,24.10
2019-05-30T07:15:10.336Z,26.97
2019-05-30T07:17:36.655Z,23.37
2019-05-30T07:20:04.423Z,25.77
2019-05-30T07:22:31.794Z,25.03
2019-05-30T07:24:58.211Z,24.50
2019-05-30T07:27:24.399Z,27.33
2019-05-30T07:29:50.671Z,27.17
2019-05-30T07:32:17.239Z,27.20
2019-05-30T07:34:45.860Z,27.70
2019-05-30T07:37:11.410Z,27.07
2019-05-30T07:39:37.756Z,28.03
2019-05-30T07:42:06.445Z,26.07
2019-05-30T07:44:32.798Z,27.00
2019-05-30T07:46:59.470Z,24.53
2019-05-30T07:49:26.270Z,24.33
2019-05-30T07:51:52.732Z,24.67
2019-05-30T07:54:19.179Z,21.43
2019-05-30T07:56:45.353Z,20.80
2019-05-30T07:59:11.530Z,20.67
2019-05-30T08:01:39.407Z,19.17
2019-05-30T08:04:05.712Z,18.50
2019-05-30T08:06:31.891Z,15.83
2019-05-30T08:08:58.095Z,15.13
2019-05-30T08:11:24.262Z,14.37
2019-05-30T08:13:50.435Z,16.40
2019-05-30T08:16:16.677Z,15.77
2019-05-30T08:18:42.888Z,17.43
2019-05-30T08:21:09.031Z,17.37
2019-05-30T08:23:36.307Z,18.13
2019-05-30T08:26:03.033Z,17.37
2019-05-30T08:28:30.249Z,15.70
2019-05-30T08:30:57.016Z,16.03
2019-05-30T08:33:23.562Z,15.80
2019-05-30T08:35:50.454Z,15.53
2019-05-30T08:38:16.854Z,10.67
2019-05-30T08:40:43.018Z,7.53
2019-05-30T08:43:09.195Z,5.87
2019-05-30T08:45:36.063Z,5.60
2019-05-30T08:48:02.471Z,5.10
2019-05-30T08:50:29.981Z,5.10
2019-05-30T08:52:56.434Z,5.07
2019-05-30T08:55:22.705Z,6.60
2019-05-30T08:57:50.111Z,5.80
2019-05-30T09:00:16.506Z,5.67
2019-05-30T09:02:43.003Z,6.03
2019-05-30T09:05:09.375Z,5.60
2019-05-30T09:07:36.439Z,6.47
2019-05-30T09:10:05.472Z,5.60
2019-05-30T09:12:31.651Z,5.03
2019-05-30T09:14:57.862Z,4.23
2019-05-30T09:17:24.043Z,3.97
2019-05-30T09:19:50.218Z,3.63
2019-05-30T09:22:16.426Z,3.80
2019-05-30T09:24:43.842Z,4.50
2019-05-30T09:27:10.390Z,3.20
2019-05-30T09:29:37.819Z,3.57
2019-05-30T09:32:04.880Z,4.87
2019-05-30T09:34:31.643Z,9.33
2019-05-30T09:36:57.952Z,7.87
2019-05-30T09:39:24.226Z,7.73
2019-05-30T09:41:50.395Z,8.30
2019-05-30T09:44:16.602Z,9.80
2019-05-30T09:46:44.147Z,9.63
2019-05-30T09:49:10.465Z,8.10
2019-05-30T09:51:36.777Z,6.13
2019-05-30T09:54:03.339Z,5.60
2019-05-30T09:56:29.616Z,8.30
2019-05-30T09:58:55.820Z,8.50
2019-05-30T10:01:21.999Z,11.47
2019-05-30T10:03:48.512Z,9.80
2019-05-30T10:06:28.372Z,7.07
2019-05-30T10:08:44.310Z,5.97
2019-05-30T10:11:10.854Z,5.63
2019-05-30T10:13:37.518Z,5.50
2019-05-30T10:16:03.683Z,5.97
2019-05-30T10:18:29.859Z,6.90
2019-05-30T10:20:57.114Z,5.90
2019-05-30T10:23:23.539Z,3.77
2019-05-30T10:25:51.122Z,3.40
2019-05-30T10:28:17.414Z,3.70
2019-05-30T10:30:43.592Z,2.83
2019-05-30T10:33:09.767Z,3.03
2019-05-30T10:35:36.448Z,2.40
2019-05-30T10:38:02.818Z,2.67
2019-05-30T10:40:32.077Z,1.63
2019-05-30T10:42:57.283Z,1.57
2019-05-30T10:45:25.667Z,1.10
2019-05-30T10:47:51.848Z,0.97
2019-05-30T10:50:18.253Z,1.50
2019-05-30T10:52:45.353Z,1.13
2019-05-30T10:55:11.616Z,0.93
2019-05-30T10:57:38.032Z,1.03
2019-05-30T11:00:09.564Z,1.10
2019-05-30T11:02:35.491Z,1.33
2019-05-30T11:05:05.019Z,1.27
2019-05-30T11:07:35.010Z,0.97
2019-05-30T11:10:05.007Z,1.20
2019-05-30T11:12:31.203Z,0.80
2019-05-30T11:14:57.873Z,0.80
2019-05-30T11:17:24.094Z,0.90
2019-05-30T11:19:51.696Z,0.70
2019-05-30T11:22:18.238Z,0.70
2019-05-30T11:24:44.438Z,0.90
2019-05-30T11:27:10.719Z,0.90
2019-05-30T11:29:36.898Z,0.90
2019-05-30T11:32:03.170Z,0.80
2019-05-30T11:34:29.378Z,0.50
2019-05-30T11:36:57.161Z,0.53
2019-05-30T11:39:23.486Z,0.70
2019-05-30T11:41:49.691Z,0.53
2019-05-30T11:44:15.960Z,0.60
2019-05-30T11:46:42.138Z,0.60
2019-05-30T11:49:08.374Z,0.60
2019-05-30T11:51:34.554Z,0.60
2019-05-30T11:54:01.192Z,0.67
2019-05-30T11:56:27.538Z,0.50
2019-05-30T11:58:53.970Z,0.70
2019-05-30T12:01:20.436Z,0.50
2019-05-30T12:03:46.641Z,0.60
2019-05-30T12:06:12.818Z,0.70
2019-05-30T12:08:39.005Z,0.50
2019-05-30T12:11:05.335Z,0.50
2019-05-30T12:13:31.691Z,0.67
2019-05-30T12:15:57.851Z,0.60
2019-05-30T12:18:24.444Z,0.80
2019-05-30T12:20:51.684Z,0.80
2019-05-30T12:23:18.025Z,0.90
2019-05-30T12:25:44.222Z,1.10
2019-05-30T12:28:10.416Z,0.93
2019-05-30T12:30:36.585Z,0.50
2019-05-30T12:33:03.088Z,0.83
2019-05-30T12:35:29.262Z,1.00
2019-05-30T12:38:01.420Z,0.90
2019-05-30T12:40:24.672Z,1.17
2019-05-30T12:42:53.845Z,1.50
2019-05-30T12:45:18.977Z,1.50
2019-05-30T12:47:45.443Z,1.33
2019-05-30T12:50:11.827Z,1.60
2019-05-30T12:52:38.172Z,1.50
2019-05-30T12:55:06.782Z,1.60
2019-05-30T12:57:33.065Z,1.50
2019-05-30T12:59:59.238Z,1.20
2019-05-30T13:02:25.438Z,1.20
2019-05-30T13:04:51.783Z,1.23
2019-05-30T13:07:18.097Z,1.43
2019-05-30T13:09:44.267Z,1.00
2019-05-30T13:12:10.542Z,1.37
2019-05-30T13:14:36.719Z,1.20
2019-05-30T13:17:04.024Z,1.53
2019-05-30T13:19:30.785Z,1.40
2019-05-30T13:21:57.165Z,1.73
2019-05-30T13:24:23.511Z,1.73
2019-05-30T13:26:49.650Z,1.40
2019-05-30T13:29:15.918Z,1.50
2019-05-30T13:31:42.424Z,1.27
2019-05-30T13:34:08.667Z,1.20
2019-05-30T13:36:34.938Z,1.63
2019-05-30T13:39:03.374Z,1.80
2019-05-30T13:41:29.552Z,2.57
2019-05-30T13:43:55.792Z,2.30
2019-05-30T13:46:22.270Z,2.03
2019-05-30T13:48:48.541Z,2.27
2019-05-30T13:51:14.722Z,3.17
2019-05-30T13:53:41.044Z,2.67
2019-05-30T13:56:07.793Z,3.53
2019-05-30T13:58:34.106Z,3.20
2019-05-30T14:01:04.887Z,3.33
2019-05-30T14:03:28.434Z,3.27
2019-05-30T14:05:54.606Z,3.10
2019-05-30T14:08:20.815Z,3.53
2019-05-30T14:10:47.244Z,3.53
2019-05-30T14:13:13.382Z,3.33
2019-05-30T14:15:39.588Z,4.37
2019-05-30T14:18:07.138Z,4.27
2019-05-30T14:20:33.554Z,4.00
2019-05-30T14:23:01.163Z,4.07
2019-05-30T14:25:27.478Z,3.23
2019-05-30T14:27:53.660Z,2.77
2019-05-30T14:30:19.962Z,3.43
2019-05-30T14:32:46.336Z,3.73
2019-05-30T14:35:13.992Z,2.37
2019-05-30T14:37:40.536Z,3.10
2019-05-30T14:40:10.846Z,2.40
2019-05-30T14:42:37.454Z,2.80
2019-05-30T14:45:06.302Z,2.53
2019-05-30T14:47:32.846Z,2.80
2019-05-30T14:49:59.035Z,2.27
2019-05-30T14:52:25.230Z,2.33
2019-05-30T14:54:51.410Z,2.10
2019-05-30T14:57:17.782Z,2.30
2019-05-30T14:59:44.180Z,2.80
2019-05-30T15:02:11.282Z,2.00
2019-05-30T15:04:37.634Z,2.20
2019-05-30T15:07:03.899Z,2.20
2019-05-30T15:09:31.235Z,2.03
2019-05-30T15:11:57.413Z,2.30
2019-05-30T15:14:23.611Z,1.70
2019-05-30T15:16:49.795Z,3.00
2019-05-30T15:19:16.547Z,1.90
2019-05-30T15:21:42.883Z,2.27
2019-05-30T15:24:09.750Z,1.87
2019-05-30T15:26:36.131Z,2.43
2019-05-30T15:29:02.663Z,1.77
2019-05-30T15:31:28.851Z,1.23
2019-05-30T15:33:55.122Z,1.33
2019-05-30T15:36:21.322Z,1.20
2019-05-30T15:38:47.595Z,1.17
2019-05-30T15:41:15.280Z,1.00
2019-05-30T15:43:41.866Z,1.27
2019-05-30T15:46:08.063Z,1.37
2019-05-30T15:48:34.230Z,1.30
2019-05-30T15:51:00.575Z,1.17
2019-05-30T15:53:26.845Z,1.40
2019-05-30T15:55:53.115Z,1.60
2019-05-30T15:58:20.505Z,1.83
2019-05-30T16:00:46.914Z,1.17
2019-05-30T16:03:14.607Z,1.20
2019-05-30T16:05:41.093Z,1.30
2019-05-30T16:08:07.275Z,1.17
2019-05-30T16:10:36.646Z,1.17
2019-05-30T16:13:01.638Z,1.10
2019-05-30T16:15:27.870Z,0.90
2019-05-30T16:17:54.045Z,1.20
2019-05-30T16:20:20.344Z,1.20
2019-05-30T16:22:46.619Z,1.10
2019-05-30T16:25:13.754Z,1.10
2019-05-30T16:27:40.099Z,1.00
2019-05-30T16:30:07.687Z,0.80
2019-05-30T16:32:34.285Z,1.10
2019-05-30T16:35:00.496Z,1.10
2019-05-30T16:37:26.662Z,0.80
2019-05-30T16:40:05.322Z,0.90
2019-05-30T16:42:22.366Z,0.90
2019-05-30T16:44:48.606Z,0.90
2019-05-30T16:47:14.783Z,0.70
2019-05-30T16:49:41.102Z,0.63
2019-05-30T16:52:07.320Z,1.00
2019-05-30T16:54:33.595Z,0.77
2019-05-30T16:56:59.798Z,0.70
2019-05-30T16:59:26.901Z,0.87
2019-05-30T17:01:57.659Z,1.20
2019-05-30T17:04:21.302Z,1.20
2019-05-30T17:06:47.552Z,1.03
2019-05-30T17:09:15.088Z,1.30
2019-05-30T17:11:41.462Z,1.33
2019-05-30T17:14:07.750Z,1.60
2019-05-30T17:16:33.997Z,1.40
2019-05-30T17:19:00.202Z,1.10
2019-05-30T17:21:26.819Z,0.97
2019-05-30T17:23:53.046Z,1.20
2019-05-30T17:26:21.129Z,1.53
2019-05-30T17:28:47.446Z,1.53
2019-05-30T17:31:13.629Z,1.30
2019-05-30T17:33:39.826Z,1.10
2019-05-30T17:36:05.997Z,1.20
2019-05-30T17:38:32.174Z,1.57
2019-05-30T17:40:58.372Z,0.90
2019-05-30T17:43:25.090Z,1.27
2019-05-30T17:45:51.414Z,1.30
2019-05-30T17:48:17.737Z,1.47
2019-05-30T17:50:44.011Z,1.50
2019-05-30T17:53:10.199Z,2.13
2019-05-30T17:55:36.390Z,1.10
2019-05-30T17:58:02.773Z,1.07
2019-05-30T18:00:30.539Z,1.50
2019-05-30T18:02:57.251Z,1.30
2019-05-30T18:05:24.599Z,1.57
2019-05-30T18:07:50.886Z,1.53
2019-05-30T18:10:17.882Z,1.50
2019-05-30T18:12:44.064Z,1.10
2019-05-30T18:15:12.226Z,1.30
2019-05-30T18:17:38.438Z,1.20
2019-05-30T18:20:06.626Z,1.40
2019-05-30T18:22:32.794Z,1.20
2019-05-30T18:24:59.046Z,1.00
2019-05-30T18:27:25.922Z,0.97
2019-05-30T18:29:52.294Z,1.00
2019-05-30T18:32:18.506Z,1.13
2019-05-30T18:34:44.684Z,0.70
2019-05-30T18:37:10.963Z,0.80
2019-05-30T18:39:37.152Z,0.70
2019-05-30T18:42:03.522Z,0.87
2019-05-30T18:44:32.739Z,0.60
2019-05-30T18:46:57.884Z,0.80
2019-05-30T18:49:25.002Z,0.83
2019-05-30T18:51:51.334Z,0.80
2019-05-30T18:54:17.667Z,1.00
2019-05-30T18:56:43.843Z,1.00
2019-05-30T18:59:10.111Z,0.90
2019-05-30T19:01:37.756Z,1.03
2019-05-30T19:04:04.396Z,0.83
2019-05-30T19:06:31.948Z,0.80
2019-05-30T19:08:58.409Z,1.17
2019-05-30T19:11:29.598Z,1.07
2019-05-30T19:13:52.563Z,0.90
2019-05-30T19:16:18.849Z,1.23
2019-05-30T19:18:45.056Z,1.10
2019-05-30T19:21:11.198Z,1.30
2019-05-30T19:23:39.678Z,1.30
2019-05-30T19:26:05.507Z,1.17
2019-05-30T19:28:32.539Z,1.33
2019-05-30T19:30:58.880Z,1.17
2019-05-30T19:33:25.060Z,1.53
2019-05-30T19:35:51.225Z,1.17
2019-05-30T19:38:17.439Z,1.70
2019-05-30T19:40:43.608Z,1.07
2019-05-30T19:43:09.782Z,1.47
2019-05-30T19:45:36.287Z,1.57
2019-05-30T19:48:02.866Z,1.50
2019-05-30T19:50:29.031Z,1.50
2019-05-30T19:52:55.443Z,1.83
2019-05-30T19:55:21.802Z,1.20
2019-05-30T19:57:48.290Z,1.47
2019-05-30T20:00:14.630Z,1.67
2019-05-30T20:02:40.809Z,1.63
2019-05-30T20:05:07.792Z,1.80
2019-05-30T20:07:34.629Z,2.13
2019-05-30T20:10:02.127Z,1.97
2019-05-30T20:12:28.465Z,1.63
2019-05-30T20:14:54.655Z,1.80
2019-05-30T20:17:20.834Z,1.70
2019-05-30T20:19:47.030Z,1.80
2019-05-30T20:22:13.234Z,1.87
2019-05-30T20:24:40.512Z,2.07
2019-05-30T20:27:06.891Z,2.60
2019-05-30T20:29:33.258Z,2.00
2019-05-30T20:31:59.427Z,2.30
2019-05-30T20:34:25.603Z,2.27
2019-05-30T20:36:51.910Z,2.10
2019-05-30T20:39:18.095Z,2.93
2019-05-30T20:41:44.258Z,2.07
2019-05-30T20:44:10.562Z,2.33
2019-05-30T20:46:37.282Z,2.73
2019-05-30T20:49:03.547Z,3.10
2019-05-30T20:51:29.807Z,2.70
2019-05-30T20:53:55.922Z,2.57
2019-05-30T20:56:22.102Z,3.07
2019-05-30T20:58:48.308Z,2.53
2019-05-30T21:01:14.486Z,3.20
2019-05-30T21:03:41.741Z,2.80
2019-05-30T21:06:08.411Z,2.90
2019-05-30T21:08:35.485Z,2.70
2019-05-30T21:11:01.659Z,2.83
2019-05-30T21:13:30.267Z,3.27
2019-05-30T21:15:56.443Z,4.07
2019-05-30T21:18:22.615Z,3.67
2019-05-30T21:20:48.959Z,3.50
2019-05-30T21:23:15.235Z,3.37
2019-05-30T21:25:43.062Z,4.00
2019-05-30T21:28:09.780Z,3.77
2019-05-30T21:30:36.764Z,4.10
2019-05-30T21:33:03.343Z,5.03
2019-05-30T21:35:29.882Z,4.37
2019-05-30T21:37:56.227Z,5.23
2019-05-30T21:40:22.399Z,5.07
2019-05-30T21:43:04.331Z,4.87
2019-05-30T21:45:17.165Z,5.83
2019-05-30T21:47:44.748Z,5.40
2019-05-30T21:50:11.281Z,5.97
2019-05-30T21:52:37.462Z,5.50
2019-05-30T21:55:04.780Z,5.67
2019-05-30T21:57:30.968Z,6.07
2019-05-30T21:59:57.136Z,6.33
2019-05-30T22:02:23.310Z,5.47
2019-05-30T22:04:50.707Z,5.47
2019-05-30T22:07:17.312Z,6.13
2019-05-30T22:09:43.466Z,6.40
2019-05-30T22:12:09.775Z,5.67
2019-05-30T22:14:35.946Z,5.63
2019-05-30T22:17:02.129Z,6.13
2019-05-30T22:19:28.328Z,6.50
2019-05-30T22:21:54.611Z,7.27
2019-05-30T22:24:20.806Z,6.60
2019-05-30T22:26:48.235Z,6.83
2019-05-30T22:29:14.827Z,6.90
2019-05-30T22:31:42.410Z,6.50
2019-05-30T22:34:08.807Z,6.97
2019-05-30T22:36:34.991Z,6.53
2019-05-30T22:39:01.196Z,5.70
2019-05-30T22:41:27.491Z,6.50
2019-05-30T22:43:53.673Z,6.80
2019-05-30T22:46:20.051Z,5.57
2019-05-30T22:48:46.622Z,5.53
2019-05-30T22:51:12.799Z,5.40
2019-05-30T22:53:38.978Z,7.53
2019-05-30T22:56:05.684Z,5.87
2019-05-30T22:58:31.862Z,6.00
2019-05-30T23:00:58.042Z,6.27
2019-05-30T23:03:24.358Z,6.00
2019-05-30T23:05:51.503Z,6.50
2019-05-30T23:08:17.823Z,7.13
2019-05-30T23:10:44.027Z,7.27
2019-05-30T23:13:10.223Z,6.80
2019-05-30T23:15:36.382Z,6.07
2019-05-30T23:18:02.962Z,6.77
2019-05-30T23:20:29.135Z,6.77
2019-05-30T23:22:55.509Z,6.30
2019-05-30T23:25:21.829Z,6.53
2019-05-30T23:27:47.982Z,5.73
2019-05-30T23:30:14.254Z,6.40
2019-05-30T23:32:40.458Z,6.97
2019-05-30T23:35:06.845Z,6.70
2019-05-30T23:37:33.174Z,6.63
2019-05-30T23:39:59.433Z,6.80
2019-05-30T23:42:25.609Z,6.13
2019-05-30T23:44:51.786Z,6.10
2019-05-30T23:47:18.282Z,6.27
2019-05-30T23:49:45.650Z,6.50
2019-05-30T23:52:11.926Z,6.20
2019-05-30T23:54:38.317Z,6.87
2019-05-30T23:57:04.479Z,6.60
2019-05-30T23:59:30.652Z,6.40
